Time;durP1;ratioP1;P1;durP2;ratioP2;P2;SDS_P1;SDS_P2;PMS_P1;PMS_P2;Temp;Humidity;BMP_temperature;BMP_pressure;BME280_temperature;BME280_humidity;BME280_pressure;Samples;Min_cycle;Max_cycle;Signal;HPM_P1;HPM_P2
2021/03/11 00:00:48;;;;;;;;;;;6.40;96.50;;;;;;5089755;28;19916;-75
2021/03/11 00:03:21;;;;;;;;;;;6.40;96.80;;;;;;5089626;28;19960;-75
2021/03/11 00:05:47;;;;;;;;;;;6.40;96.60;;;;;;5092631;28;20353;-75
2021/03/11 00:08:12;;;;;;;;;;;6.40;96.30;;;;;;5090186;28;19908;-75
2021/03/11 00:10:38;;;;;;;;;;;6.40;96.70;;;;;;5091337;28;19920;-75
2021/03/11 00:13:05;;;;;;;;;;;6.50;96.70;;;;;;5087146;28;20377;-75
2021/03/11 00:15:31;;;;;;;;;;;6.50;97.10;;;;;;5082960;28;19923;-75
2021/03/11 00:17:56;;;;;;;;;;;6.50;97.00;;;;;;5090368;28;19908;-75
2021/03/11 00:20:23;;;;;;;;;;;6.50;96.60;;;;;;5090384;28;20514;-75
2021/03/11 00:22:49;;;;;;;;;;;6.50;96.80;;;;;;5091366;28;20376;-75
2021/03/11 00:25:15;;;;;;;;;;;6.40;96.90;;;;;;5089703;28;19912;-75
2021/03/11 00:27:41;;;;;;;;;;;6.50;96.90;;;;;;5089102;28;19951;-75
2021/03/11 00:30:07;;;;;;;;;;;6.50;97.00;;;;;;5089383;28;20434;-75
2021/03/11 00:32:33;;;;;;;;;;;6.50;97.00;;;;;;5090881;28;19995;-75
2021/03/11 00:34:58;;;;;;;;;;;6.40;96.90;;;;;;5091117;28;19948;-75
2021/03/11 00:37:24;;;;;;;;;;;6.40;96.90;;;;;;5090944;28;19930;-75
2021/03/11 00:39:49;;;;;;;;;;;6.40;97.20;;;;;;5091170;28;20349;-75
2021/03/11 00:42:15;;;;;;;;;;;6.40;97.10;;;;;;5082175;28;20304;-75
2021/03/11 00:44:40;;;;;;;;;;;6.40;97.20;;;;;;5088309;28;20365;-75
2021/03/11 00:47:06;;;;;;;;;;;6.40;96.90;;;;;;5086037;28;20077;-75
2021/03/11 00:49:32;;;;;;;;;;;6.40;96.90;;;;;;5088883;28;19931;-75
2021/03/11 00:51:58;;;;;;;;;;;6.50;96.90;;;;;;5087352;28;19916;-75
2021/03/11 00:54:23;;;;;;;;;;;6.50;97.10;;;;;;5086931;28;19948;-75
2021/03/11 00:56:49;;;;;;;;;;;6.50;96.90;;;;;;5090486;28;19915;-75
2021/03/11 00:59:14;;;;;;;;;;;6.50;97.00;;;;;;5091061;28;19908;-75
2021/03/11 01:01:40;;;;;;;;;;;6.60;97.20;;;;;;5089370;28;19919;-75
2021/03/11 01:04:05;;;;;;;;;;;6.60;97.30;;;;;;5091037;28;19915;-75
2021/03/11 01:06:31;;;;;;;;;;;6.60;97.40;;;;;;5090838;28;20422;-75
2021/03/11 01:08:57;;;;;;;;;;;6.60;97.30;;;;;;5090705;28;19919;-75
2021/03/11 01:11:22;;;;;;;;;;;6.60;97.60;;;;;;5090990;28;19920;-75
2021/03/11 01:13:48;;;;;;;;;;;6.60;97.60;;;;;;5091324;28;19915;-75
2021/03/11 01:16:13;;;;;;;;;;;6.70;98.00;;;;;;5090164;28;19989;-74
2021/03/11 01:18:38;;;;;;;;;;;6.70;98.00;;;;;;5090897;28;20620;-75
2021/03/11 01:21:04;;;;;;;;;;;6.70;98.50;;;;;;5090678;28;19908;-75
2021/03/11 01:23:30;;;;;;;;;;;6.70;98.60;;;;;;5086816;28;19909;-75
2021/03/11 01:25:55;;;;;;;;;;;6.70;98.60;;;;;;5090572;28;19923;-75
2021/03/11 01:28:20;;;;;;;;;;;6.70;98.70;;;;;;5090761;28;19912;-75
2021/03/11 01:30:46;;;;;;;;;;;6.70;98.80;;;;;;5093379;28;19912;-75
2021/03/11 01:33:11;;;;;;;;;;;6.70;98.80;;;;;;5093385;28;19919;-75
2021/03/11 01:35:37;;;;;;;;;;;6.80;99.00;;;;;;5094143;28;20487;-75
2021/03/11 01:38:03;;;;;;;;;;;6.80;98.90;;;;;;5094150;28;20383;-75
2021/03/11 01:40:28;;;;;;;;;;;6.80;99.00;;;;;;5093016;28;20003;-75
2021/03/11 01:42:54;;;;;;;;;;;6.80;99.10;;;;;;5094348;28;19908;-75
2021/03/11 01:45:20;;;;;;;;;;;6.80;99.10;;;;;;5092323;28;19936;-75
2021/03/11 01:47:45;;;;;;;;;;;6.80;99.30;;;;;;5091747;28;19908;-75
2021/03/11 01:50:11;;;;;;;;;;;6.80;99.40;;;;;;5092559;28;19923;-75
2021/03/11 01:52:39;;;;;;;;;;;6.90;99.10;;;;;;5093926;28;19915;-75
2021/03/11 01:55:05;;;;;;;;;;;6.90;99.20;;;;;;5090059;28;19935;-75
2021/03/11 01:57:30;;;;;;;;;;;6.90;99.30;;;;;;5093662;28;19908;-75
2021/03/11 01:59:56;;;;;;;;;;;6.90;99.30;;;;;;5093828;28;20100;-75
2021/03/11 02:02:22;;;;;;;;;;;7.00;99.20;;;;;;5093877;28;20287;-75
2021/03/11 02:04:47;;;;;;;;;;;7.00;99.10;;;;;;5093918;28;19999;-75
2021/03/11 02:07:12;;;;;;;;;;;7.00;99.30;;;;;;5093507;28;19908;-75
2021/03/11 02:09:38;;;;;;;;;;;7.00;99.00;;;;;;5093904;28;19943;-75
2021/03/11 02:12:19;;;;;;;;;;;7.00;99.10;;;;;;5092404;28;20003;-75
2021/03/11 02:14:54;;;;;;;;;;;7.00;98.90;;;;;;5081605;28;19920;-75
2021/03/11 02:17:21;;;;;;;;;;;7.00;98.70;;;;;;5090338;28;19916;-75
2021/03/11 02:19:50;;;;;;;;;;;7.00;98.70;;;;;;5093631;28;19909;-75
2021/03/11 02:22:21;;;;;;;;;;;7.00;98.40;;;;;;5092223;28;20030;-75
2021/03/11 02:24:49;;;;;;;;;;;6.90;98.50;;;;;;5089613;28;19915;-75
2021/03/11 02:27:33;;;;;;;;;;;7.00;98.30;;;;;;5092866;28;19919;-75
2021/03/11 02:29:59;;;;;;;;;;;6.90;98.50;;;;;;5093442;28;20479;-75
2021/03/11 02:32:25;;;;;;;;;;;6.90;98.10;;;;;;5093412;28;19995;-75
2021/03/11 02:34:52;;;;;;;;;;;6.90;98.20;;;;;;5091933;28;20273;-75
2021/03/11 02:37:20;;;;;;;;;;;6.90;98.30;;;;;;5092945;28;19991;-75
2021/03/11 02:39:50;;;;;;;;;;;6.90;97.90;;;;;;5092859;28;19923;-75
2021/03/11 02:42:16;;;;;;;;;;;6.90;97.70;;;;;;5093247;28;19908;-75
2021/03/11 02:44:42;;;;;;;;;;;6.90;97.70;;;;;;5081744;28;20387;-75
2021/03/11 02:47:08;;;;;;;;;;;6.90;97.60;;;;;;5090510;28;19908;-75
2021/03/11 02:49:34;;;;;;;;;;;6.90;97.20;;;;;;5093018;28;20002;-75
2021/03/11 02:52:00;;;;;;;;;;;6.90;97.50;;;;;;5091333;28;19918;-75
2021/03/11 02:54:26;;;;;;;;;;;6.90;97.10;;;;;;5086396;28;19912;-75
2021/03/11 02:56:52;;;;;;;;;;;6.90;97.20;;;;;;5091278;28;20273;-75
2021/03/11 02:59:17;;;;;;;;;;;7.00;97.20;;;;;;5091504;28;20029;-75
2021/03/11 03:01:44;;;;;;;;;;;7.00;97.40;;;;;;5093113;28;19908;-75
2021/03/11 03:04:11;;;;;;;;;;;7.10;97.40;;;;;;5092614;28;19934;-75
2021/03/11 03:06:38;;;;;;;;;;;7.10;97.20;;;;;;5092066;28;20264;-75
2021/03/11 03:09:04;;;;;;;;;;;7.10;97.20;;;;;;5092675;28;20422;-75
2021/03/11 03:11:30;;;;;;;;;;;7.20;97.10;;;;;;5092690;28;19954;-75
2021/03/11 03:13:56;;;;;;;;;;;7.20;97.00;;;;;;5091885;28;19934;-75
2021/03/11 03:16:22;;;;;;;;;;;7.30;96.90;;;;;;5079886;28;19935;-75
2021/03/11 03:18:48;;;;;;;;;;;7.30;96.90;;;;;;5092461;28;20365;-76
2021/03/11 03:21:13;;;;;;;;;;;7.40;97.10;;;;;;5092015;28;19908;-75
2021/03/11 03:23:39;;;;;;;;;;;7.40;97.00;;;;;;5088467;28;19908;-75
2021/03/11 03:26:05;;;;;;;;;;;7.50;97.10;;;;;;5091755;28;20284;-75
2021/03/11 03:28:30;;;;;;;;;;;7.50;97.00;;;;;;5092333;28;19912;-76
2021/03/11 03:30:56;;;;;;;;;;;7.50;97.00;;;;;;5090899;28;19912;-75
2021/03/11 03:33:21;;;;;;;;;;;7.50;97.60;;;;;;5092843;28;20353;-75
2021/03/11 03:35:47;;;;;;;;;;;7.50;97.30;;;;;;5091372;28;19916;-75
2021/03/11 03:38:13;;;;;;;;;;;7.60;97.40;;;;;;5092041;28;19908;-75
2021/03/11 03:40:39;;;;;;;;;;;7.60;98.00;;;;;;5091962;28;19912;-74
2021/03/11 03:43:15;;;;;;;;;;;7.60;97.80;;;;;;5090744;28;19950;-75
2021/03/11 03:45:47;;;;;;;;;;;7.70;98.10;;;;;;5090682;28;19912;-75
2021/03/11 03:48:15;;;;;;;;;;;7.70;98.10;;;;;;5090705;28;19915;-75
2021/03/11 03:50:44;;;;;;;;;;;7.70;98.50;;;;;;5090921;28;19959;-75
2021/03/11 03:53:14;;;;;;;;;;;7.70;98.50;;;;;;5091108;28;19908;-77
2021/03/11 03:55:39;;;;;;;;;;;7.70;98.70;;;;;;5094634;28;19966;-80
2021/03/11 03:58:05;;;;;;;;;;;7.70;98.80;;;;;;5112149;28;20373;-75
2021/03/11 04:00:31;;;;;;;;;;;7.80;98.90;;;;;;5112228;28;20057;-75
2021/03/11 04:02:57;;;;;;;;;;;7.80;99.30;;;;;;5111901;28;19955;-76
2021/03/11 04:05:23;;;;;;;;;;;7.80;99.60;;;;;;5111906;28;19942;-76
2021/03/11 04:07:50;;;;;;;;;;;7.90;99.90;;;;;;5110381;28;19934;-75
2021/03/11 04:10:15;;;;;;;;;;;7.90;99.90;;;;;;5111790;28;19918;-76
2021/03/11 04:12:42;;;;;;;;;;;7.90;99.90;;;;;;5107494;28;19912;-75
2021/03/11 04:15:08;;;;;;;;;;;8.00;99.90;;;;;;5078586;28;20542;-75
2021/03/11 04:17:34;;;;;;;;;;;8.10;99.90;;;;;;5089840;28;20811;-77
2021/03/11 04:20:01;;;;;;;;;;;8.10;99.90;;;;;;5091318;28;19969;-77
2021/03/11 04:22:27;;;;;;;;;;;8.20;99.90;;;;;;5090175;28;19909;-75
2021/03/11 04:24:52;;;;;;;;;;;8.20;99.90;;;;;;5087515;28;19915;-75
2021/03/11 04:27:18;;;;;;;;;;;8.20;99.90;;;;;;5091022;28;19914;-77
2021/03/11 04:29:43;;;;;;;;;;;8.20;99.90;;;;;;5091343;28;19934;-75
2021/03/11 04:32:09;;;;;;;;;;;8.30;99.90;;;;;;5089567;28;19912;-75
2021/03/11 04:34:35;;;;;;;;;;;8.30;99.90;;;;;;5091317;28;19912;-75
2021/03/11 04:37:01;;;;;;;;;;;8.30;99.90;;;;;;5091284;28;19920;-76
2021/03/11 04:39:26;;;;;;;;;;;8.30;99.90;;;;;;5091440;28;19916;-77
2021/03/11 04:41:52;;;;;;;;;;;8.30;99.90;;;;;;5090843;28;19950;-75
2021/03/11 04:44:20;;;;;;;;;;;8.30;99.90;;;;;;5077028;28;19999;-75
2021/03/11 04:46:46;;;;;;;;;;;8.30;99.90;;;;;;5091004;28;20347;-75
2021/03/11 04:49:11;;;;;;;;;;;8.30;99.90;;;;;;5091066;28;19908;-75
2021/03/11 04:51:38;;;;;;;;;;;8.40;99.90;;;;;;5091148;28;20361;-75
2021/03/11 04:54:03;;;;;;;;;;;8.40;99.90;;;;;;5087096;28;20397;-77
2021/03/11 04:56:29;;;;;;;;;;;8.40;99.90;;;;;;5090440;28;19958;-76
2021/03/11 04:58:55;;;;;;;;;;;8.40;99.90;;;;;;5091213;28;19908;-76
2021/03/11 05:01:23;;;;;;;;;;;8.40;99.90;;;;;;5090817;28;19919;-76
2021/03/11 05:03:49;;;;;;;;;;;8.40;99.90;;;;;;5092683;28;19934;-75
2021/03/11 05:06:14;;;;;;;;;;;8.40;99.90;;;;;;5094859;28;20380;-75
2021/03/11 05:08:40;;;;;;;;;;;8.40;99.90;;;;;;5095271;28;19908;-75
2021/03/11 05:11:06;;;;;;;;;;;8.40;99.90;;;;;;5095014;28;19912;-75
2021/03/11 05:13:32;;;;;;;;;;;8.40;99.90;;;;;;5093735;28;19908;-75
2021/03/11 05:15:58;;;;;;;;;;;8.40;99.90;;;;;;5093121;28;20031;-76
2021/03/11 05:18:23;;;;;;;;;;;8.40;99.90;;;;;;5094758;28;19951;-75
2021/03/11 05:20:49;;;;;;;;;;;8.40;99.90;;;;;;5094912;28;19908;-76
2021/03/11 05:23:14;;;;;;;;;;;8.40;99.90;;;;;;5089759;28;19908;-75
2021/03/11 05:25:40;;;;;;;;;;;8.40;99.90;;;;;;5094496;28;19908;-76
2021/03/11 05:28:05;;;;;;;;;;;8.30;99.90;;;;;;5094768;28;19912;-76
2021/03/11 05:30:31;;;;;;;;;;;8.30;99.90;;;;;;5094336;28;19968;-75
2021/03/11 05:32:56;;;;;;;;;;;8.30;99.90;;;;;;5094657;28;19961;-75
2021/03/11 05:35:22;;;;;;;;;;;8.20;99.90;;;;;;5094606;28;20033;-75
2021/03/11 05:37:47;;;;;;;;;;;8.20;99.90;;;;;;5094264;28;19908;-77
2021/03/11 05:40:13;;;;;;;;;;;8.20;99.90;;;;;;5094570;28;19923;-75
2021/03/11 05:42:42;;;;;;;;;;;8.20;99.90;;;;;;5094479;28;19908;-75
2021/03/11 05:45:07;;;;;;;;;;;8.20;99.90;;;;;;5093651;28;19915;-75
2021/03/11 05:47:35;;;;;;;;;;;8.20;99.90;;;;;;5094047;28;19908;-78
2021/03/11 05:50:01;;;;;;;;;;;8.20;99.90;;;;;;5094440;28;19908;-75
2021/03/11 05:52:28;;;;;;;;;;;8.20;99.90;;;;;;5094291;28;20288;-75
2021/03/11 05:54:54;;;;;;;;;;;8.30;99.90;;;;;;5095868;28;19914;-78
2021/03/11 05:57:20;;;;;;;;;;;8.30;99.90;;;;;;5114156;28;19998;-77
2021/03/11 05:59:45;;;;;;;;;;;8.30;99.90;;;;;;5114426;28;19912;-75
2021/03/11 06:02:11;;;;;;;;;;;8.30;99.90;;;;;;5114576;28;19911;-75
2021/03/11 06:04:39;;;;;;;;;;;8.30;99.90;;;;;;5114530;28;19912;-76
2021/03/11 06:07:07;;;;;;;;;;;8.30;99.90;;;;;;5114160;28;19998;-76
2021/03/11 06:09:33;;;;;;;;;;;8.40;99.90;;;;;;5114554;28;19908;-75
2021/03/11 06:11:59;;;;;;;;;;;8.40;99.90;;;;;;5113917;28;19919;-75
2021/03/11 06:14:26;;;;;;;;;;;8.40;99.90;;;;;;5091541;28;19920;-76
2021/03/11 06:16:58;;;;;;;;;;;8.40;99.90;;;;;;5092828;28;19927;-75
2021/03/11 06:19:23;;;;;;;;;;;8.40;99.90;;;;;;5093750;28;19953;-75
2021/03/11 06:21:51;;;;;;;;;;;8.40;99.90;;;;;;5093751;28;19912;-75
2021/03/11 06:24:16;;;;;;;;;;;8.50;99.90;;;;;;5086009;28;19908;-75
2021/03/11 06:26:42;;;;;;;;;;;8.50;99.90;;;;;;5092052;28;20286;-75
2021/03/11 06:29:07;;;;;;;;;;;8.60;99.90;;;;;;5093859;28;19915;-75
2021/03/11 06:31:33;;;;;;;;;;;8.60;99.90;;;;;;5092182;28;19918;-77
2021/03/11 06:33:59;;;;;;;;;;;8.60;99.90;;;;;;5085321;28;20391;-76
2021/03/11 06:36:26;;;;;;;;;;;8.70;99.90;;;;;;5090961;28;19912;-77
2021/03/11 06:38:51;;;;;;;;;;;8.70;99.90;;;;;;5092242;28;19997;-76
2021/03/11 06:41:17;;;;;;;;;;;8.70;99.90;;;;;;5092935;28;19955;-78
2021/03/11 06:43:59;;;;;;;;;;;8.80;99.90;;;;;;5079957;28;19912;-75
2021/03/11 06:46:26;;;;;;;;;;;8.80;99.90;;;;;;5085277;28;19908;-75
2021/03/11 06:49:11;;;;;;;;;;;8.80;99.90;;;;;;5091905;28;19920;-76
2021/03/11 06:51:36;;;;;;;;;;;8.80;99.90;;;;;;5092871;28;19913;-75
2021/03/11 06:54:02;;;;;;;;;;;8.90;99.90;;;;;;5089414;28;19919;-75
2021/03/11 06:56:28;;;;;;;;;;;8.90;99.90;;;;;;5092595;28;19908;-76
2021/03/11 06:58:54;;;;;;;;;;;9.00;99.90;;;;;;5093078;28;19954;-75
2021/03/11 07:01:20;;;;;;;;;;;9.00;99.90;;;;;;5092847;28;20436;-75
2021/03/11 07:03:47;;;;;;;;;;;9.00;99.90;;;;;;5092967;28;19951;-78
2021/03/11 07:06:32;;;;;;;;;;;9.00;99.90;;;;;;5090871;28;20365;-75
2021/03/11 07:08:57;;;;;;;;;;;9.00;99.90;;;;;;5092903;28;20199;-75
2021/03/11 07:11:24;;;;;;;;;;;9.10;99.90;;;;;;5092629;28;19916;-75
2021/03/11 07:13:49;;;;;;;;;;;9.10;99.90;;;;;;5092901;28;20284;-76
2021/03/11 07:16:16;;;;;;;;;;;9.20;99.90;;;;;;5092376;28;19912;-75
2021/03/11 07:18:42;;;;;;;;;;;9.30;99.90;;;;;;5090756;28;19916;-76
2021/03/11 07:21:08;;;;;;;;;;;9.30;99.90;;;;;;5091630;28;19912;-75
2021/03/11 07:23:43;;;;;;;;;;;9.40;99.90;;;;;;5088209;28;19915;-75
2021/03/11 07:26:09;;;;;;;;;;;9.50;99.90;;;;;;5091790;28;20003;-76
2021/03/11 07:28:34;;;;;;;;;;;9.60;99.90;;;;;;5091659;28;19908;-76
2021/03/11 07:31:01;;;;;;;;;;;9.60;99.90;;;;;;5092369;28;19919;-75
2021/03/11 07:33:28;;;;;;;;;;;9.70;99.90;;;;;;5092030;28;20357;-75
2021/03/11 07:35:55;;;;;;;;;;;9.80;99.90;;;;;;5090698;28;20003;-75
2021/03/11 07:38:22;;;;;;;;;;;9.80;99.90;;;;;;5092011;28;19912;-77
2021/03/11 07:40:52;;;;;;;;;;;9.90;99.90;;;;;;5090974;28;19916;-75
2021/03/11 07:43:18;;;;;;;;;;;9.90;99.90;;;;;;5092376;28;19908;-75
2021/03/11 07:45:44;;;;;;;;;;;9.90;99.90;;;;;;5089725;28;19990;-76
2021/03/11 07:48:10;;;;;;;;;;;10.00;99.90;;;;;;5090750;28;19942;-75
2021/03/11 07:50:36;;;;;;;;;;;10.00;99.90;;;;;;5091869;28;20394;-75
2021/03/11 07:53:03;;;;;;;;;;;10.10;99.90;;;;;;5092013;28;19995;-76
2021/03/11 07:55:28;;;;;;;;;;;10.10;99.90;;;;;;5091651;28;19936;-76
2021/03/11 07:57:56;;;;;;;;;;;10.10;99.90;;;;;;5091959;28;19942;-76
2021/03/11 08:00:26;;;;;;;;;;;10.20;99.90;;;;;;5091927;28;19913;-77
2021/03/11 08:03:11;;;;;;;;;;;10.20;99.90;;;;;;5091880;28;19912;-76
2021/03/11 08:05:37;;;;;;;;;;;10.30;99.90;;;;;;5085177;28;19916;-78
2021/03/11 08:08:19;;;;;;;;;;;10.30;99.90;;;;;;5089154;28;19912;-76
2021/03/11 08:10:48;;;;;;;;;;;10.40;99.90;;;;;;5090347;28;20193;-76
2021/03/11 08:13:28;;;;;;;;;;;10.40;99.90;;;;;;5083167;28;20004;-76
2021/03/11 08:15:54;;;;;;;;;;;10.50;99.90;;;;;;5089685;28;19989;-76
2021/03/11 08:18:32;;;;;;;;;;;10.60;99.90;;;;;;5090478;28;19908;-76
2021/03/11 08:20:58;;;;;;;;;;;10.70;99.90;;;;;;5092093;28;19916;-76
2021/03/11 08:23:27;;;;;;;;;;;10.90;99.90;;;;;;5087388;28;19908;-78
2021/03/11 08:25:52;;;;;;;;;;;10.90;99.90;;;;;;5088414;28;19908;-76
2021/03/11 08:28:18;;;;;;;;;;;11.00;99.90;;;;;;5083517;28;19914;-76
2021/03/11 08:30:46;;;;;;;;;;;11.00;99.90;;;;;;5090132;28;19916;-79
2021/03/11 08:33:35;;;;;;;;;;;11.00;99.90;;;;;;5091316;28;19998;-76
2021/03/11 08:36:02;;;;;;;;;;;11.00;99.90;;;;;;5078664;28;20356;-76
2021/03/11 08:38:30;;;;;;;;;;;11.20;99.90;;;;;;5090893;28;20003;-79
2021/03/11 08:41:02;;;;;;;;;;;11.20;99.90;;;;;;5091318;28;20095;-76
2021/03/11 08:43:37;;;;;;;;;;;11.30;99.90;;;;;;5091125;28;19909;-79
2021/03/11 08:46:05;;;;;;;;;;;11.40;99.90;;;;;;5089640;28;20356;-76
2021/03/11 08:48:41;;;;;;;;;;;11.40;99.90;;;;;;5084046;28;19959;-76
2021/03/11 08:51:22;;;;;;;;;;;11.40;99.90;;;;;;5080915;28;20380;-76
2021/03/11 08:53:51;;;;;;;;;;;11.40;99.90;;;;;;5079304;28;19916;-76
2021/03/11 08:56:17;;;;;;;;;;;11.40;99.90;;;;;;5090688;28;19951;-76
2021/03/11 08:58:56;;;;;;;;;;;11.50;99.90;;;;;;5090829;28;19952;-76
2021/03/11 09:01:38;;;;;;;;;;;11.60;99.90;;;;;;5091014;28;19988;-76
2021/03/11 09:04:30;;;;;;;;;;;11.80;99.90;;;;;;5087245;28;20295;-76
2021/03/11 09:07:05;;;;;;;;;;;12.20;99.90;;;;;;5089706;28;19999;-77
2021/03/11 09:09:37;;;;;;;;;;;12.60;99.90;;;;;;5087558;28;19908;-76
2021/03/11 09:12:06;;;;;;;;;;;13.00;99.20;;;;;;5105904;28;19912;-79
2021/03/11 09:14:33;;;;;;;;;;;13.10;98.80;;;;;;5086088;28;19913;-76
2021/03/11 09:17:08;;;;;;;;;;;13.20;99.20;;;;;;5077360;28;19915;-80
2021/03/11 09:19:37;;;;;;;;;;;13.30;99.10;;;;;;5090371;28;19970;-75
2021/03/11 09:22:15;;;;;;;;;;;13.40;98.60;;;;;;5091009;28;19908;-75
2021/03/11 09:24:40;;;;;;;;;;;13.50;98.60;;;;;;5087051;28;20304;-75
2021/03/11 09:27:05;;;;;;;;;;;13.60;98.30;;;;;;5089490;28;19908;-75
2021/03/11 09:29:31;;;;;;;;;;;13.60;98.40;;;;;;5089529;28;20009;-75
2021/03/11 09:31:56;;;;;;;;;;;13.70;98.50;;;;;;5090444;28;20371;-75
2021/03/11 09:34:22;;;;;;;;;;;13.60;98.30;;;;;;5090537;28;19916;-75
2021/03/11 09:36:47;;;;;;;;;;;13.50;98.40;;;;;;5089208;28;19908;-75
2021/03/11 09:39:13;;;;;;;;;;;13.50;98.60;;;;;;5090852;28;19909;-78
2021/03/11 09:41:39;;;;;;;;;;;13.40;98.50;;;;;;5090558;28;20014;-75
2021/03/11 09:44:06;;;;;;;;;;;13.40;99.20;;;;;;5090913;28;19915;-75
2021/03/11 09:46:32;;;;;;;;;;;13.50;99.10;;;;;;5087748;28;19964;-78
2021/03/11 09:48:58;;;;;;;;;;;13.50;99.00;;;;;;5090509;28;20008;-77
2021/03/11 09:51:27;;;;;;;;;;;13.50;98.60;;;;;;5093083;28;19944;-75
2021/03/11 09:53:54;;;;;;;;;;;13.50;99.20;;;;;;5092934;28;19908;-75
2021/03/11 09:56:25;;;;;;;;;;;13.60;99.20;;;;;;5093644;28;19947;-76
2021/03/11 09:58:51;;;;;;;;;;;13.80;98.90;;;;;;5094139;28;19992;-75
2021/03/11 10:01:24;;;;;;;;;;;13.80;99.00;;;;;;5094301;28;20374;-75
2021/03/11 10:03:49;;;;;;;;;;;13.70;99.10;;;;;;5094170;28;19915;-75
2021/03/11 10:06:15;;;;;;;;;;;13.60;99.20;;;;;;5093861;28;19908;-75
2021/03/11 10:08:41;;;;;;;;;;;13.40;99.40;;;;;;5093994;28;19912;-75
2021/03/11 10:11:08;;;;;;;;;;;13.30;99.80;;;;;;5094329;28;20341;-75
2021/03/11 10:13:46;;;;;;;;;;;13.10;99.90;;;;;;5090256;28;20353;-79
2021/03/11 10:16:13;;;;;;;;;;;13.00;99.90;;;;;;5079544;28;19920;-76
2021/03/11 10:18:57;;;;;;;;;;;12.80;99.90;;;;;;5082862;28;20010;-76
2021/03/11 10:21:23;;;;;;;;;;;12.80;99.90;;;;;;5093289;28;20372;-75
2021/03/11 10:23:50;;;;;;;;;;;12.80;99.90;;;;;;5089780;28;19948;-77
2021/03/11 10:26:22;;;;;;;;;;;12.80;99.90;;;;;;5092018;28;19934;-75
2021/03/11 10:28:50;;;;;;;;;;;12.80;99.90;;;;;;5092470;28;19956;-77
2021/03/11 10:31:15;;;;;;;;;;;12.80;99.90;;;;;;5093559;28;19916;-75
2021/03/11 10:33:41;;;;;;;;;;;12.80;99.90;;;;;;5092449;28;19919;-75
2021/03/11 10:36:12;;;;;;;;;;;12.80;99.90;;;;;;5093401;28;19916;-75
2021/03/11 10:38:37;;;;;;;;;;;12.80;99.90;;;;;;5093374;28;20002;-76
2021/03/11 10:41:10;;;;;;;;;;;12.80;99.90;;;;;;5085306;28;20328;-75
2021/03/11 10:43:35;;;;;;;;;;;12.90;99.90;;;;;;5092659;28;19991;-75
2021/03/11 10:46:01;;;;;;;;;;;13.00;99.90;;;;;;5086439;28;19922;-75
2021/03/11 10:48:26;;;;;;;;;;;13.10;99.90;;;;;;5078483;28;20326;-77
2021/03/11 10:50:53;;;;;;;;;;;13.30;99.90;;;;;;5077530;28;20065;-75
2021/03/11 10:53:20;;;;;;;;;;;13.50;99.90;;;;;;5086826;28;20365;-76
2021/03/11 10:55:46;;;;;;;;;;;13.50;99.90;;;;;;5098781;28;19908;-75
2021/03/11 10:58:22;;;;;;;;;;;13.50;99.90;;;;;;5093420;28;19938;-75
2021/03/11 11:00:48;;;;;;;;;;;13.40;99.90;;;;;;5092765;28;19909;-75
2021/03/11 11:03:14;;;;;;;;;;;13.30;99.90;;;;;;5092982;28;19934;-75
2021/03/11 11:05:39;;;;;;;;;;;13.30;99.90;;;;;;5092722;28;19908;-78
2021/03/11 11:08:06;;;;;;;;;;;13.30;99.90;;;;;;5092850;28;20419;-78
2021/03/11 11:10:32;;;;;;;;;;;13.30;99.90;;;;;;5092606;28;19927;-76
2021/03/11 11:12:58;;;;;;;;;;;13.20;99.90;;;;;;5092898;28;19959;-75
2021/03/11 11:15:26;;;;;;;;;;;13.10;99.90;;;;;;5092884;28;19937;-75
2021/03/11 11:17:52;;;;;;;;;;;13.00;99.90;;;;;;5092877;28;19918;-75
2021/03/11 11:20:17;;;;;;;;;;;12.80;99.90;;;;;;5093113;28;19908;-78
2021/03/11 11:22:43;;;;;;;;;;;12.70;99.90;;;;;;5092005;28;20292;-75
2021/03/11 11:25:09;;;;;;;;;;;12.50;99.90;;;;;;5088576;28;19908;-75
2021/03/11 11:27:35;;;;;;;;;;;12.40;99.90;;;;;;5092337;28;19914;-75
2021/03/11 11:30:01;;;;;;;;;;;12.30;99.90;;;;;;5092635;28;19916;-75
2021/03/11 11:32:26;;;;;;;;;;;12.10;99.90;;;;;;5092428;28;19969;-75
2021/03/11 11:34:52;;;;;;;;;;;11.90;99.90;;;;;;5092258;28;19923;-79
2021/03/11 11:37:18;;;;;;;;;;;11.80;99.90;;;;;;5092138;28;19965;-76
2021/03/11 11:39:44;;;;;;;;;;;11.70;99.90;;;;;;5092312;28;19908;-76
2021/03/11 11:42:10;;;;;;;;;;;11.60;99.90;;;;;;5092444;28;20360;-76
2021/03/11 11:44:35;;;;;;;;;;;11.50;99.90;;;;;;5092333;28;19908;-76
2021/03/11 11:47:00;;;;;;;;;;;11.40;99.90;;;;;;5088319;28;19912;-77
2021/03/11 11:49:26;;;;;;;;;;;11.40;99.90;;;;;;5091778;28;19908;-77
2021/03/11 11:51:51;;;;;;;;;;;11.20;99.90;;;;;;5091893;28;20357;-76
2021/03/11 11:54:17;;;;;;;;;;;11.20;99.90;;;;;;5088102;28;19908;-76
2021/03/11 11:56:42;;;;;;;;;;;11.10;99.90;;;;;;5091725;28;20345;-77
2021/03/11 11:59:08;;;;;;;;;;;11.00;99.90;;;;;;5092065;28;19909;-76
2021/03/11 12:01:34;;;;;;;;;;;11.00;99.90;;;;;;5091984;28;20393;-76
2021/03/11 12:03:59;;;;;;;;;;;11.00;99.90;;;;;;5090744;28;19934;-76
2021/03/11 12:06:25;;;;;;;;;;;11.10;99.90;;;;;;5091484;28;19919;-77
2021/03/11 12:08:50;;;;;;;;;;;11.20;99.90;;;;;;5091610;28;19923;-76
2021/03/11 12:11:16;;;;;;;;;;;11.30;99.90;;;;;;5090362;28;20002;-76
2021/03/11 12:13:41;;;;;;;;;;;11.40;99.90;;;;;;5091374;28;19918;-76
2021/03/11 12:16:07;;;;;;;;;;;11.50;99.90;;;;;;5089393;28;19951;-77
2021/03/11 12:18:32;;;;;;;;;;;11.50;99.90;;;;;;5091253;28;19987;-76
2021/03/11 12:20:58;;;;;;;;;;;11.50;99.90;;;;;;5090179;28;20007;-76
2021/03/11 12:23:23;;;;;;;;;;;11.50;99.90;;;;;;5090201;28;20317;-76
2021/03/11 12:25:49;;;;;;;;;;;11.50;99.90;;;;;;5103175;28;19908;-77
2021/03/11 12:28:14;;;;;;;;;;;11.60;99.90;;;;;;5111902;28;20052;-76
2021/03/11 12:30:40;;;;;;;;;;;11.60;99.90;;;;;;5111754;28;19968;-76
2021/03/11 12:33:05;;;;;;;;;;;11.70;99.90;;;;;;5110459;28;19908;-77
2021/03/11 12:35:31;;;;;;;;;;;11.80;99.90;;;;;;5088699;28;19924;-76
2021/03/11 12:37:56;;;;;;;;;;;11.80;99.90;;;;;;5090961;28;20337;-76
2021/03/11 12:40:23;;;;;;;;;;;11.90;99.90;;;;;;5089001;28;19931;-76
2021/03/11 12:42:48;;;;;;;;;;;11.90;99.90;;;;;;5091407;28;19943;-76
2021/03/11 12:45:15;;;;;;;;;;;11.90;99.90;;;;;;5090368;28;19908;-77
2021/03/11 12:47:40;;;;;;;;;;;11.90;99.90;;;;;;5084421;28;19977;-76
2021/03/11 12:50:06;;;;;;;;;;;11.90;99.90;;;;;;5083890;28;20358;-77
2021/03/11 12:52:32;;;;;;;;;;;12.00;99.90;;;;;;5082956;28;19912;-76
2021/03/11 12:54:58;;;;;;;;;;;12.10;99.90;;;;;;5104337;28;19908;-77
2021/03/11 12:57:23;;;;;;;;;;;12.10;99.90;;;;;;5104721;28;19912;-76
2021/03/11 12:59:48;;;;;;;;;;;12.20;99.90;;;;;;5090060;28;19950;-76
2021/03/11 13:02:14;;;;;;;;;;;12.20;99.90;;;;;;5089303;28;19908;-76
2021/03/11 13:04:39;;;;;;;;;;;12.30;99.90;;;;;;5086188;28;19909;-76
2021/03/11 13:07:05;;;;;;;;;;;12.20;99.90;;;;;;5079353;28;20214;-76
2021/03/11 13:09:33;;;;;;;;;;;12.20;99.90;;;;;;5090218;28;19912;-76
2021/03/11 13:11:59;;;;;;;;;;;12.10;99.90;;;;;;5091114;28;19913;-76
2021/03/11 13:14:24;;;;;;;;;;;12.10;99.90;;;;;;5091202;28;19915;-77
2021/03/11 13:16:49;;;;;;;;;;;11.90;99.90;;;;;;5090954;28;19915;-76
2021/03/11 13:19:17;;;;;;;;;;;11.80;99.90;;;;;;5090826;28;19991;-76
2021/03/11 13:21:43;;;;;;;;;;;11.80;99.90;;;;;;5090968;28;19915;-76
2021/03/11 13:24:09;;;;;;;;;;;11.80;99.90;;;;;;5090783;28;19908;-76
2021/03/11 13:26:34;;;;;;;;;;;11.90;99.90;;;;;;5111869;28;19908;-77
2021/03/11 13:29:00;;;;;;;;;;;12.00;99.90;;;;;;5115214;28;19908;-76
2021/03/11 13:31:25;;;;;;;;;;;12.10;99.90;;;;;;5115117;28;20382;-76
2021/03/11 13:33:51;;;;;;;;;;;12.10;99.90;;;;;;5114891;28;19911;-77
2021/03/11 13:36:16;;;;;;;;;;;12.20;99.90;;;;;;5113473;28;19915;-77
2021/03/11 13:38:42;;;;;;;;;;;12.20;99.90;;;;;;5115118;28;19958;-76
2021/03/11 13:41:07;;;;;;;;;;;12.30;99.90;;;;;;5114978;28;19911;-76
2021/03/11 13:43:33;;;;;;;;;;;12.40;99.90;;;;;;5114985;28;19908;-76
2021/03/11 13:45:58;;;;;;;;;;;12.40;99.90;;;;;;5102632;28;19908;-77
2021/03/11 13:48:24;;;;;;;;;;;12.50;99.90;;;;;;5093944;28;20109;-77
2021/03/11 13:50:49;;;;;;;;;;;12.50;99.90;;;;;;5092811;28;19919;-76
2021/03/11 13:53:15;;;;;;;;;;;12.50;99.90;;;;;;5088453;28;20046;-80
2021/03/11 13:55:40;;;;;;;;;;;12.60;99.90;;;;;;5093315;28;20254;-76
2021/03/11 13:58:06;;;;;;;;;;;12.60;99.90;;;;;;5092394;28;19909;-76
2021/03/11 14:00:32;;;;;;;;;;;12.70;99.90;;;;;;5094199;28;19913;-77
2021/03/11 14:02:58;;;;;;;;;;;12.70;99.90;;;;;;5093921;28;19914;-76
2021/03/11 14:05:24;;;;;;;;;;;12.80;99.90;;;;;;5094121;28;19908;-76
2021/03/11 14:07:50;;;;;;;;;;;12.70;99.90;;;;;;5093856;28;20392;-76
2021/03/11 14:10:15;;;;;;;;;;;12.70;99.90;;;;;;5093204;28;19951;-77
2021/03/11 14:12:41;;;;;;;;;;;12.70;99.90;;;;;;5090289;28;20327;-78
2021/03/11 14:15:07;;;;;;;;;;;12.80;99.90;;;;;;5085366;28;19938;-76
2021/03/11 14:17:33;;;;;;;;;;;12.70;99.90;;;;;;5082677;28;20312;-78
2021/03/11 14:19:58;;;;;;;;;;;12.70;99.90;;;;;;5083378;28;19908;-80
2021/03/11 14:22:24;;;;;;;;;;;12.80;99.90;;;;;;5084760;28;19908;-78